ADDS METAR Data INFO
IDs: Format: Raw Decoded Include TAF

Data at: 1017 UTC 14 Dec 2017

KSNH 140955Z AUTO 36004KT 10SM CLR 00/M02 A2987 RMK A01
KSNH 140935Z AUTO 00000KT 10SM FEW048 FEW055 M00/M02 A2987 RMK A01
KSNH 140915Z AUTO 00000KT 10SM SCT050 BKN055 00/M02 A2987 RMK A01
KSNH 140855Z AUTO 00000KT 10SM SCT050 BKN055 M00/M02 A2986 RMK A01
KSNH 140835Z AUTO 00000KT 10SM SCT048 BKN055 01/M02 A2986 RMK A01
KSNH 140815Z AUTO 00000KT 10SM FEW047 BKN055 00/M02 A2986 RMK A01
KSNH 140755Z AUTO 00000KT 10SM FEW050 SCT055 00/M02 A2985 RMK A01
KSNH 140735Z AUTO 00000KT 10SM FEW043 FEW049 01/M03 A2985 RMK A01
KSNH 140715Z AUTO 17003KT 10SM FEW038 BKN047 01/M03 A2984 RMK A01
KSNH 140655Z AUTO 00000KT 10SM FEW034 SCT041 SCT046 00/M03 A2984 RMK A01
KSNH 140635Z AUTO 18004KT 10SM FEW033 SCT040 BKN045 03/M03 A2983 RMK A01
KSNH 140615Z AUTO 16004KT 10SM FEW035 SCT040 SCT045 01/M03 A2983 RMK A01
KSNH 140555Z AUTO VRB03KT 10SM FEW038 SCT046 SCT050 03/M03 A2982 RMK A01
KSNH 140535Z AUTO 00000KT 10SM FEW048 02/M03 A2982 RMK A01
KSNH 140515Z AUTO 00000KT 10SM FEW048 02/M03 A2982 RMK A01
KSNH 140455Z AUTO 00000KT 10SM CLR 02/M03 A2982 RMK A01
KSNH 140435Z AUTO 20004KT 10SM CLR 03/M03 A2982 RMK A01
KSNH 140415Z AUTO 20003KT 10SM FEW050 04/M03 A2982 RMK A01
KSNH 140355Z AUTO 21005KT 10SM FEW050 06/M04 A2981 RMK A01
KSNH 140335Z AUTO 21007KT 10SM CLR 07/M04 A2981 RMK A01
KSNH 140315Z AUTO 21007KT 10SM FEW050 FEW055 08/M04 A2981 RMK A01
KSNH 140255Z AUTO 21006KT 10SM FEW050 FEW055 08/M04 A2982 RMK A01
KSNH 140235Z AUTO 21007KT 10SM FEW050 FEW055 08/M04 A2981 RMK A01
KSNH 140215Z AUTO 21007KT 10SM FEW055 08/M04 A2981 RMK A01
KSNH 140155Z AUTO 21008KT 10SM FEW055 08/M05 A2981 RMK A01
KSNH 140135Z AUTO 22008G14KT 10SM CLR 08/M05 A2980 RMK A01
KSNH 140115Z AUTO 21008KT 10SM SCT085 09/M05 A2980 RMK A01
KSNH 140055Z AUTO 22009G15KT 10SM OVC080 09/M05 A2980 RMK A01
KSNH 140035Z AUTO 21010KT 10SM OVC075 09/M05 A2980 RMK A01
KSNH 140015Z AUTO 21008KT 10SM OVC075 09/M05 A2979 RMK A01
KSNH 132355Z AUTO 20008KT 10SM OVC070 09/M05 A2979 RMK A01
KSNH 132335Z AUTO 21007KT 10SM OVC075 09/M05 A2979 RMK A01
KSNH 132315Z AUTO 22008KT 10SM SCT070 SCT085 10/M05 A2979 RMK A01
KSNH 132255Z AUTO 21008G13KT 10SM CLR 11/M05 A2979 RMK A01
KSNH 132235Z AUTO 21008G14KT 10SM CLR 11/M05 A2978 RMK A01
KSNH 132215Z AUTO 22011KT 10SM CLR 12/M06 A2978 RMK A01
KSNH 132155Z AUTO 22013G23KT 10SM CLR 12/M06 A2978 RMK A01
KSNH 132135Z AUTO 21017G22KT 10SM CLR 13/M06 A2976 RMK A01
KSNH 132115Z AUTO 20014G20KT 10SM CLR 13/M06 A2977 RMK A01
KSNH 132055Z AUTO 21014G21KT 10SM CLR 13/M06 A2978 RMK A01
KSNH 132035Z AUTO 21017G25KT 10SM CLR 13/M06 A2979 RMK A01
KSNH 132015Z AUTO 22015G23KT 10SM CLR 13/M07 A2979 RMK A01
KSNH 131955Z AUTO 20018G24KT 10SM CLR 12/M07 A2980 RMK A01
KSNH 131935Z AUTO 21014G21KT 10SM CLR 12/M06 A2981 RMK A01
KSNH 131915Z AUTO 22019G25KT 10SM CLR 11/M07 A2982 RMK A01
KSNH 131855Z AUTO 22017KT 10SM CLR 11/M07 A2985 RMK A01
KSNH 131835Z AUTO 21014G21KT 10SM CLR 10/M07 A2986 RMK A01
KSNH 131815Z AUTO 21017G22KT 10SM CLR 10/M07 A2988 RMK A01
KSNH 131755Z AUTO 19016G22KT 10SM CLR 10/M07 A2989 RMK A01
KSNH 131735Z AUTO 20017KT 10SM CLR 09/M07 A2992 RMK A01
KSNH 131715Z AUTO 21016KT 10SM CLR 08/M07 A2994 RMK A01
KSNH 131655Z AUTO 22014G21KT 10SM CLR 08/M07 A2995 RMK A01
KSNH 131635Z AUTO 21011G22KT 10SM CLR 07/M08 A2997 RMK A01
KSNH 131615Z AUTO 21012G17KT 10SM CLR 06/M07 A2999 RMK A01
KSNH 131555Z AUTO 20012KT 10SM CLR 06/M07 A3000 RMK A01
KSNH 131535Z AUTO 20010KT 10SM CLR 05/M07 A3001 RMK A01
KSNH 131515Z AUTO 19010KT 10SM CLR 04/M06 A3001 RMK A01
KSNH 131455Z AUTO 20008KT 10SM CLR 03/M06 A3002 RMK A01
KSNH 131435Z AUTO 20007KT 10SM CLR 02/M06 A3002 RMK A01
KSNH 131415Z AUTO 17004KT 10SM CLR M00/M05 A3002 RMK A01
KSNH 131355Z AUTO 17005KT 10SM CLR M02/M05 A3003 RMK A01
KSNH 131335Z AUTO 18004KT 10SM CLR M03/M05 A3003 RMK A01
KSNH 131315Z AUTO 19004KT 10SM CLR M04/M06 A3003 RMK A01
KSNH 131255Z AUTO 00000KT 10SM CLR M05/M06 A3005 RMK A01
KSNH 131235Z AUTO 18003KT 10SM CLR M04/M06 A3004 RMK A01
KSNH 131215Z AUTO 17003KT 10SM CLR M06/M07 A3005 RMK A01
KSNH 131155Z AUTO 18004KT 10SM CLR M06/M07 A3005 RMK A01
KSNH 131135Z AUTO 00000KT 10SM CLR M05/M07 A3005 RMK A01
KSNH 131115Z AUTO 18004KT 10SM CLR M05/M06 A3005 RMK A01
KSNH 131055Z AUTO 00000KT 10SM CLR M06/M07 A3006 RMK A01
KSNH 131035Z AUTO 00000KT 10SM CLR M06/M07 A3006 RMK A01
KSNH 131015Z AUTO 21004KT 10SM CLR M06/M06 A3007 RMK A01
KSNH 130955Z AUTO 00000KT 10SM CLR M06/M07 A3007 RMK A01
KSNH 130935Z AUTO 00000KT 10SM CLR M06/M06 A3008 RMK A01
KSNH 130915Z AUTO 00000KT 10SM CLR M05/M07 A3009 RMK A01
KSNH 130855Z AUTO 00000KT 10SM CLR M05/M06 A3010 RMK A01
KSNH 130835Z AUTO 00000KT 10SM CLR M05/M06 A3011 RMK A01
KSNH 130815Z AUTO 00000KT 10SM CLR M05/M07 A3011 RMK A01
KSNH 130755Z AUTO 00000KT 10SM CLR M05/M06 A3011 RMK A01
KSNH 130735Z AUTO 00000KT 10SM CLR M05/M06 A3011 RMK A01
KSNH 130715Z AUTO 00000KT 10SM CLR M05/M06 A3011 RMK A01
KSNH 130655Z AUTO 00000KT 10SM CLR M04/M06 A3012 RMK A01
KSNH 130635Z AUTO 00000KT 10SM CLR M04/M06 A3012 RMK A01
KSNH 130615Z AUTO 00000KT 10SM CLR M04/M06 A3013 RMK A01
KSNH 130555Z AUTO 00000KT 10SM CLR M04/M06 A3013 RMK A01
KSNH 130535Z AUTO 00000KT 10SM CLR M04/M06 A3013 RMK A01
KSNH 130515Z AUTO 00000KT 10SM CLR M04/M06 A3013 RMK A01
KSNH 130455Z AUTO 00000KT 10SM CLR M03/M06 A3014 RMK A01
KSNH 130435Z AUTO 00000KT 10SM CLR M03/M06 A3014 RMK A01
KSNH 130415Z AUTO 00000KT 10SM CLR M03/M06 A3014 RMK A01
KSNH 130355Z AUTO 00000KT 10SM CLR M03/M06 A3013 RMK A01
KSNH 130335Z AUTO 00000KT 10SM CLR M03/M06 A3013 RMK A01
KSNH 130315Z AUTO 00000KT 10SM CLR M02/M07 A3013 RMK A01
KSNH 130255Z AUTO 00000KT 10SM CLR M02/M07 A3014 RMK A01
KSNH 130235Z AUTO 00000KT 10SM CLR M02/M07 A3014 RMK A01
KSNH 130215Z AUTO 00000KT 10SM CLR M01/M06 A3014 RMK A01
KSNH 130155Z AUTO 00000KT 10SM CLR 00/M07 A3015 RMK A01
KSNH 130135Z AUTO 00000KT 10SM CLR 01/M08 A3015 RMK A01
KSNH 130115Z AUTO 33003KT 10SM CLR 02/M09 A3014 RMK A01
KSNH 130055Z AUTO 34006KT 10SM CLR 03/M08 A3014 RMK A01
KSNH 130035Z AUTO 34007KT 10SM CLR 03/M08 A3014 RMK A01
KSNH 130015Z AUTO 34008KT 10SM CLR 03/M08 A3013 RMK A01
KSNH 122355Z AUTO 34008KT 10SM CLR 04/M09 A3013 RMK A01
KSNH 122335Z AUTO 33010KT 10SM CLR 04/M09 A3012 RMK A01
KSNH 122315Z AUTO 33005G10KT 10SM CLR 04/M08 A3012 RMK A01
KSNH 122255Z AUTO 33008KT 10SM CLR 05/M08 A3011 RMK A01
KSNH 122235Z AUTO 32008G14KT 10SM CLR 05/M08 A3011 RMK A01